Time,TemperatureF,DewpointF,PressureIn,WindDirection,WindDirectionDegrees,WindSpeedMPH,WindSpeedGustMPH,Humidity,HourlyPrecipIn,Conditions,Clouds,dailyrainin,SolarRadiationWatts/m^2,SoftwareType,DateUTC
2013-01-12 00:22:00,39.0,38.0,-100.00,South,179,3.0,9.0,96,0.00,,,0.04,1.000000,,2013-01-12 05:22:00,
2013-01-12 00:32:00,39.0,38.0,-100.00,South,179,3.0,9.0,96,0.00,,,0.04,1.000000,,2013-01-12 05:32:00,
2013-01-12 00:42:00,39.0,38.0,-100.00,South,179,3.0,9.0,96,0.00,,,0.04,1.000000,,2013-01-12 05:42:00,
2013-01-12 00:52:00,39.0,38.0,-100.00,South,179,3.0,9.0,96,0.00,,,0.04,1.000000,,2013-01-12 05:52:00,
2013-01-12 01:22:00,39.0,38.0,-100.00,South,181,4.0,10.0,96,0.00,,,0.02,1.000000,,2013-01-12 06:22:00,
2013-01-12 01:32:00,39.0,38.0,-100.00,South,181,4.0,10.0,96,0.00,,,0.02,1.000000,,2013-01-12 06:32:00,
2013-01-12 01:42:00,39.0,38.0,-100.00,South,181,4.0,10.0,96,0.00,,,0.02,1.000000,,2013-01-12 06:42:00,
2013-01-12 01:52:00,39.0,38.0,-100.00,South,181,4.0,10.0,96,0.00,,,0.02,1.000000,,2013-01-12 06:52:00,
2013-01-12 02:22:00,41.0,39.0,-100.00,South,178,5.0,10.0,93,0.00,,,0.01,1.000000,,2013-01-12 07:22:00,
2013-01-12 02:32:00,41.0,39.0,-100.00,South,178,5.0,10.0,93,0.00,,,0.01,1.000000,,2013-01-12 07:32:00,
2013-01-12 02:42:00,41.0,39.0,-100.00,South,178,5.0,10.0,93,0.00,,,0.01,1.000000,,2013-01-12 07:42:00,
2013-01-12 02:52:00,41.0,39.0,-100.00,South,178,5.0,10.0,93,0.00,,,0.01,1.000000,,2013-01-12 07:52:00,
2013-01-12 03:22:00,42.0,40.0,-100.00,South,177,5.0,11.0,94,0.00,,,0.01,1.000000,,2013-01-12 08:22:00,
2013-01-12 03:32:00,42.0,40.0,-100.00,South,177,5.0,11.0,94,0.00,,,0.01,1.000000,,2013-01-12 08:32:00,
2013-01-12 03:42:00,42.0,40.0,-100.00,South,177,5.0,11.0,94,0.00,,,0.01,1.000000,,2013-01-12 08:42:00,
2013-01-12 03:52:00,42.0,40.0,-100.00,South,177,5.0,11.0,94,0.00,,,0.01,1.000000,,2013-01-12 08:52:00,
2013-01-12 04:22:00,43.0,41.0,-100.00,South,178,5.0,10.0,93,0.00,,,0.01,1.000000,,2013-01-12 09:22:00,
2013-01-12 04:32:00,43.0,41.0,-100.00,South,178,5.0,10.0,93,0.00,,,0.01,1.000000,,2013-01-12 09:32:00,
2013-01-12 04:42:00,43.0,41.0,-100.00,South,178,5.0,10.0,93,0.00,,,0.01,1.000000,,2013-01-12 09:42:00,
2013-01-12 04:52:00,43.0,41.0,-100.00,South,178,5.0,10.0,93,0.00,,,0.01,1.000000,,2013-01-12 09:52:00,
2013-01-12 05:22:00,43.0,41.0,-100.00,South,186,5.0,11.0,92,0.00,,,0.00,1.000000,,2013-01-12 10:22:00,
2013-01-12 05:32:00,43.0,41.0,-100.00,South,186,5.0,11.0,92,0.00,,,0.00,1.000000,,2013-01-12 10:32:00,
2013-01-12 05:42:00,43.0,41.0,-100.00,South,186,5.0,11.0,92,0.00,,,0.00,1.000000,,2013-01-12 10:42:00,
2013-01-12 05:52:00,43.0,41.0,-100.00,South,186,5.0,11.0,92,0.00,,,0.00,1.000000,,2013-01-12 10:52:00,
2013-01-12 06:22:00,44.0,41.0,-100.00,SSW,192,6.0,14.0,90,0.00,,,0.00,1.000000,,2013-01-12 11:22:00,
2013-01-12 06:32:00,44.0,41.0,-100.00,SSW,192,6.0,14.0,90,0.00,,,0.00,1.000000,,2013-01-12 11:32:00,
2013-01-12 06:42:00,44.0,41.0,-100.00,SSW,192,6.0,14.0,90,0.00,,,0.00,1.000000,,2013-01-12 11:42:00,
2013-01-12 06:52:00,44.0,41.0,-100.00,SSW,192,6.0,14.0,90,0.00,,,0.00,1.000000,,2013-01-12 11:52:00,
2013-01-12 07:22:00,43.0,39.0,-100.00,SSW,211,7.0,17.0,85,0.01,,,0.01,1.000000,,2013-01-12 12:22:00,
2013-01-12 07:32:00,43.0,39.0,-100.00,SSW,211,7.0,17.0,85,0.01,,,0.01,1.000000,,2013-01-12 12:32:00,
2013-01-12 07:42:00,43.0,39.0,-100.00,SSW,211,7.0,17.0,85,0.01,,,0.01,1.000000,,2013-01-12 12:42:00,
2013-01-12 07:52:00,43.0,39.0,-100.00,SSW,211,7.0,17.0,85,0.01,,,0.01,1.000000,,2013-01-12 12:52:00,
2013-01-12 08:22:00,40.0,37.0,-100.00,SW,218,7.0,27.0,88,0.02,,,0.03,1.000000,,2013-01-12 13:22:00,
2013-01-12 08:33:00,40.0,37.0,-100.00,SW,218,7.0,27.0,88,0.02,,,0.03,1.000000,,2013-01-12 13:33:00,
2013-01-12 08:42:00,40.0,37.0,-100.00,SW,218,7.0,27.0,88,0.02,,,0.03,1.000000,,2013-01-12 13:42:00,
2013-01-12 08:53:00,40.0,37.0,-100.00,SW,218,7.0,27.0,88,0.02,,,0.03,1.000000,,2013-01-12 13:53:00,
2013-01-12 09:22:00,39.0,34.0,-100.00,SW,219,7.0,20.0,81,0.00,,,0.03,1.000000,,2013-01-12 14:22:00,
2013-01-12 09:33:00,39.0,34.0,-100.00,SW,219,7.0,20.0,81,0.00,,,0.03,1.000000,,2013-01-12 14:33:00,
2013-01-12 09:43:00,39.0,34.0,-100.00,SW,219,7.0,20.0,81,0.00,,,0.03,1.000000,,2013-01-12 14:43:00,
2013-01-12 09:53:00,39.0,34.0,-100.00,SW,219,7.0,20.0,81,0.00,,,0.03,1.000000,,2013-01-12 14:53:00,
2013-01-12 10:22:00,37.0,30.0,-100.00,SW,215,8.0,21.0,76,0.00,,,0.03,7.000000,,2013-01-12 15:22:00,
2013-01-12 10:33:00,37.0,30.0,-100.00,SW,215,8.0,21.0,76,0.00,,,0.03,7.000000,,2013-01-12 15:33:00,
2013-01-12 10:43:00,37.0,30.0,-100.00,SW,215,8.0,21.0,76,0.00,,,0.03,7.000000,,2013-01-12 15:43:00,
2013-01-12 10:53:00,37.0,30.0,-100.00,SW,215,8.0,21.0,76,0.00,,,0.03,7.000000,,2013-01-12 15:53:00,
2013-01-12 11:23:00,35.0,26.0,-100.00,SW,229,7.0,24.0,70,0.00,,,0.03,64.000000,,2013-01-12 16:23:00,
2013-01-12 11:33:00,35.0,26.0,-100.00,SW,229,7.0,24.0,70,0.00,,,0.03,64.000000,,2013-01-12 16:33:00,
2013-01-12 11:42:00,35.0,26.0,-100.00,SW,229,7.0,24.0,70,0.00,,,0.03,64.000000,,2013-01-12 16:42:00,
2013-01-12 11:52:00,35.0,26.0,-100.00,SW,229,7.0,24.0,70,0.00,,,0.03,64.000000,,2013-01-12 16:52:00,
2013-01-12 12:22:00,33.0,24.0,-100.00,SW,221,8.0,19.0,70,0.00,,,0.03,75.000000,,2013-01-12 17:22:00,
2013-01-12 12:33:00,33.0,24.0,-100.00,SW,221,8.0,19.0,70,0.00,,,0.03,75.000000,,2013-01-12 17:33:00,
2013-01-12 12:43:00,33.0,24.0,-100.00,SW,221,8.0,19.0,70,0.00,,,0.03,75.000000,,2013-01-12 17:43:00,
2013-01-12 12:53:00,33.0,24.0,-100.00,SW,221,8.0,19.0,70,0.00,,,0.03,75.000000,,2013-01-12 17:53:00,
2013-01-12 13:23:00,29.0,20.0,-100.00,SW,228,8.0,19.0,70,0.00,,,0.03,59.000000,,2013-01-12 18:23:00,
2013-01-12 13:33:00,29.0,20.0,-100.00,SW,228,8.0,19.0,70,0.00,,,0.03,59.000000,,2013-01-12 18:33:00,
2013-01-12 13:42:00,29.0,20.0,-100.00,SW,228,8.0,19.0,70,0.00,,,0.03,59.000000,,2013-01-12 18:42:00,
2013-01-12 13:52:00,29.0,20.0,-100.00,SW,228,8.0,19.0,70,0.00,,,0.03,59.000000,,2013-01-12 18:52:00,
2013-01-12 14:23:00,28.0,20.0,-100.00,WSW,242,7.0,16.0,70,0.00,,,0.03,76.000000,,2013-01-12 19:23:00,
2013-01-12 14:33:00,28.0,20.0,-100.00,WSW,242,7.0,16.0,70,0.00,,,0.03,76.000000,,2013-01-12 19:33:00,
2013-01-12 14:43:00,28.0,20.0,-100.00,WSW,242,7.0,16.0,70,0.00,,,0.03,76.000000,,2013-01-12 19:43:00,
2013-01-12 14:52:00,28.0,20.0,-100.00,WSW,242,7.0,16.0,70,0.00,,,0.03,76.000000,,2013-01-12 19:52:00,
2013-01-12 15:22:00,27.0,18.0,-100.00,WSW,241,5.0,16.0,68,0.00,,,0.03,87.000000,,2013-01-12 20:22:00,
2013-01-12 15:33:00,27.0,18.0,-100.00,WSW,241,5.0,16.0,68,0.00,,,0.03,87.000000,,2013-01-12 20:33:00,
2013-01-12 15:42:00,27.0,18.0,-100.00,WSW,241,5.0,16.0,68,0.00,,,0.03,87.000000,,2013-01-12 20:42:00,
2013-01-12 15:53:00,27.0,18.0,-100.00,WSW,241,5.0,16.0,68,0.00,,,0.03,87.000000,,2013-01-12 20:53:00,
2013-01-12 16:22:00,26.0,17.0,-100.00,SW,221,7.0,17.0,69,0.00,,,0.03,50.000000,,2013-01-12 21:22:00,
2013-01-12 16:33:00,26.0,17.0,-100.00,SW,221,7.0,17.0,69,0.00,,,0.03,50.000000,,2013-01-12 21:33:00,
2013-01-12 16:43:00,26.0,17.0,-100.00,SW,221,7.0,17.0,69,0.00,,,0.03,50.000000,,2013-01-12 21:43:00,
2013-01-12 16:52:00,26.0,17.0,-100.00,SW,221,7.0,17.0,69,0.00,,,0.03,50.000000,,2013-01-12 21:52:00,
2013-01-12 17:23:00,24.0,15.0,-100.00,WSW,241,6.0,20.0,69,0.00,,,0.03,16.000000,,2013-01-12 22:23:00,
2013-01-12 17:33:00,24.0,15.0,-100.00,WSW,241,6.0,20.0,69,0.00,,,0.03,16.000000,,2013-01-12 22:33:00,
2013-01-12 17:43:00,24.0,15.0,-100.00,WSW,241,6.0,20.0,69,0.00,,,0.03,16.000000,,2013-01-12 22:43:00,
2013-01-12 17:52:00,24.0,15.0,-100.00,WSW,241,6.0,20.0,69,0.00,,,0.03,16.000000,,2013-01-12 22:52:00,
2013-01-12 19:23:00,22.0,13.0,-100.00,WSW,241,5.0,12.0,69,-99.99,,,0.03,1.000000,,2013-01-13 00:23:00,
2013-01-12 19:33:00,22.0,13.0,-100.00,WSW,241,5.0,12.0,69,-99.99,,,0.03,1.000000,,2013-01-13 00:33:00,
2013-01-12 19:43:00,22.0,13.0,-100.00,WSW,241,5.0,12.0,69,-99.99,,,0.03,1.000000,,2013-01-13 00:43:00,
2013-01-12 19:52:00,22.0,13.0,-100.00,WSW,241,5.0,12.0,69,-99.99,,,0.03,1.000000,,2013-01-13 00:52:00,
2013-01-12 20:22:00,20.0,11.0,-100.00,West,262,5.0,12.0,69,0.00,,,0.03,1.000000,,2013-01-13 01:22:00,
2013-01-12 20:33:00,20.0,11.0,-100.00,West,262,5.0,12.0,69,0.00,,,0.03,1.000000,,2013-01-13 01:33:00,
2013-01-12 20:43:00,20.0,11.0,-100.00,West,262,5.0,12.0,69,0.00,,,0.03,1.000000,,2013-01-13 01:43:00,
2013-01-12 20:52:00,20.0,11.0,-100.00,West,262,5.0,12.0,69,0.00,,,0.03,1.000000,,2013-01-13 01:52:00,
2013-01-12 21:22:00,19.0,10.0,-100.00,West,269,5.0,11.0,66,0.00,,,0.03,1.000000,,2013-01-13 02:22:00,
2013-01-12 21:32:00,19.0,10.0,-100.00,West,269,5.0,11.0,66,0.00,,,0.03,1.000000,,2013-01-13 02:32:00,
2013-01-12 21:43:00,19.0,10.0,-100.00,West,269,5.0,11.0,66,0.00,,,0.03,1.000000,,2013-01-13 02:43:00,
2013-01-12 21:52:00,19.0,10.0,-100.00,West,269,5.0,11.0,66,0.00,,,0.03,1.000000,,2013-01-13 02:52:00,
2013-01-12 22:22:00,17.0,7.0,-100.00,West,269,5.0,14.0,65,0.00,,,0.03,1.000000,,2013-01-13 03:22:00,
2013-01-12 22:33:00,17.0,7.0,-100.00,West,269,5.0,14.0,65,0.00,,,0.03,1.000000,,2013-01-13 03:33:00,
2013-01-12 22:43:00,17.0,7.0,-100.00,West,269,5.0,14.0,65,0.00,,,0.03,1.000000,,2013-01-13 03:43:00,
2013-01-12 22:52:00,17.0,7.0,-100.00,West,269,5.0,14.0,65,0.00,,,0.03,1.000000,,2013-01-13 03:52:00,
2013-01-12 23:22:00,17.0,8.0,-100.00,West,280,4.0,9.0,66,0.00,,,0.03,1.000000,,2013-01-13 04:22:00,
2013-01-12 23:33:00,17.0,8.0,-100.00,West,280,4.0,9.0,66,0.00,,,0.03,1.000000,,2013-01-13 04:33:00,
2013-01-12 23:42:00,17.0,8.0,-100.00,West,280,4.0,9.0,66,0.00,,,0.03,1.000000,,2013-01-13 04:42:00,
2013-01-12 23:52:00,17.0,8.0,-100.00,West,280,4.0,9.0,66,0.00,,,0.03,1.000000,,2013-01-13 04:52:00,